Time;durP1;ratioP1;P1;durP2;ratioP2;P2;SDS_P1;SDS_P2;PMS_P1;PMS_P2;Temp;Humidity;BMP_temperature;BMP_pressure;BME280_temperature;BME280_humidity;BME280_pressure;Samples;Min_cycle;Max_cycle;Signal;HPM_P1;HPM_P2
2021/11/14 00:01:07;;;;;;;36.10;23.80;;;;;;;5.34;100.00;96111.88;5021507;28;20044;-73
2021/11/14 00:03:35;;;;;;;37.40;23.83;;;;;;;5.32;100.00;96119.81;5008271;28;20029;-73
2021/11/14 00:06:02;;;;;;;37.23;25.07;;;;;;;5.35;100.00;96110.94;5024826;28;20033;-73
2021/11/14 00:08:28;;;;;;;40.73;26.47;;;;;;;5.33;100.00;96113.69;5038197;28;20025;-73
2021/11/14 00:11:00;;;;;;;40.27;26.50;;;;;;;5.33;100.00;96112.81;5035566;28;20491;-73
2021/11/14 00:13:28;;;;;;;34.07;24.50;;;;;;;5.32;100.00;96114.59;5034706;28;20193;-73
2021/11/14 00:15:54;;;;;;;37.37;24.47;;;;;;;5.32;100.00;96111.19;5019425;28;20610;-74
2021/11/14 00:18:20;;;;;;;37.93;23.20;;;;;;;5.27;100.00;96114.19;5009858;28;20044;-73
2021/11/14 00:20:47;;;;;;;39.23;23.70;;;;;;;5.26;100.00;96120.34;5015127;28;20037;-72
2021/11/14 00:23:13;;;;;;;37.57;24.00;;;;;;;5.26;100.00;96116.91;5033325;28;20098;-73
2021/11/14 00:25:39;;;;;;;38.40;25.73;;;;;;;5.21;100.00;96119.91;5026843;28;20029;-73
2021/11/14 00:28:06;;;;;;;34.37;23.20;;;;;;;5.23;100.00;96114.56;5006185;28;20030;-73
2021/11/14 00:30:40;;;;;;;36.57;23.97;;;;;;;5.20;100.00;96111.28;5016979;28;20021;-73
2021/11/14 00:33:08;;;;;;;38.93;24.90;;;;;;;5.20;100.00;96116.50;5015505;28;20036;-73
2021/11/14 00:35:34;;;;;;;34.77;23.43;;;;;;;5.20;100.00;96108.66;5013568;28;20032;-73
2021/11/14 00:38:00;;;;;;;35.13;23.63;;;;;;;5.20;100.00;96111.28;5035022;28;20029;-73
2021/11/14 00:40:29;;;;;;;38.87;25.03;;;;;;;5.20;100.00;96106.06;5016426;28;20025;-73
2021/11/14 00:42:57;;;;;;;34.70;24.03;;;;;;;5.20;100.00;96107.84;5019568;28;20032;-73
2021/11/14 00:45:25;;;;;;;34.40;23.77;;;;;;;5.21;100.00;96114.69;5037883;28;20033;-73
2021/11/14 00:47:52;;;;;;;34.43;24.00;;;;;;;5.23;100.00;96118.03;5038806;28;20075;-73
2021/11/14 00:50:18;;;;;;;36.00;23.13;;;;;;;5.15;100.00;96120.44;5014449;28;20113;-73
2021/11/14 00:52:45;;;;;;;37.80;24.43;;;;;;;5.12;100.00;96120.69;5042627;28;20045;-72
2021/11/14 00:55:15;;;;;;;39.27;23.83;;;;;;;5.13;100.00;96122.31;5001523;28;20025;-73
2021/11/14 00:57:41;;;;;;;38.23;25.40;;;;;;;5.11;100.00;96121.63;5005368;28;20045;-73
2021/11/14 01:00:11;;;;;;;39.40;24.80;;;;;;;5.12;100.00;96120.69;5031596;28;20017;-73
2021/11/14 01:02:38;;;;;;;37.10;24.13;;;;;;;5.11;100.00;96124.25;5030449;28;20040;-73
2021/11/14 01:05:06;;;;;;;36.70;25.27;;;;;;;5.11;100.00;96124.25;5029780;28;20091;-72
2021/11/14 01:07:32;;;;;;;38.00;23.87;;;;;;;5.13;100.00;96132.75;5039883;28;20094;-72
2021/11/14 01:09:58;;;;;;;34.73;23.77;;;;;;;5.15;100.00;96129.06;5020321;28;20017;-73
2021/11/14 01:12:24;;;;;;;33.67;23.10;;;;;;;5.12;100.00;96126.72;5016631;28;20036;-73
2021/11/14 01:14:50;;;;;;;32.57;23.17;;;;;;;5.13;100.00;96123.19;5012326;28;20047;-72
2021/11/14 01:17:16;;;;;;;33.30;21.87;;;;;;;5.16;100.00;96122.91;5011994;28;20484;-72
2021/11/14 01:19:42;;;;;;;32.50;21.43;;;;;;;5.18;100.00;96125.38;5016762;28;20047;-72
2021/11/14 01:22:09;;;;;;;33.87;21.30;;;;;;;5.18;100.00;96130.59;5032339;28;20064;-73
2021/11/14 01:24:36;;;;;;;29.67;19.67;;;;;;;5.19;100.00;96124.41;5038270;28;20033;-72
2021/11/14 01:27:01;;;;;;;34.07;22.40;;;;;;;5.17;100.00;96134.16;5035518;28;20025;-72
2021/11/14 01:29:27;;;;;;;31.37;21.87;;;;;;;5.17;100.00;96115.91;5032092;28;20033;-72
2021/11/14 01:31:53;;;;;;;32.17;21.60;;;;;;;5.18;100.00;96122.78;5022001;28;20029;-72
2021/11/14 01:34:19;;;;;;;31.47;22.47;;;;;;;5.15;100.00;96120.44;5036694;28;20044;-72
2021/11/14 01:36:44;;;;;;;33.67;23.30;;;;;;;5.14;100.00;96127.41;5014465;28;20057;-72
2021/11/14 01:39:10;;;;;;;32.03;21.47;;;;;;;5.12;100.00;96133.72;5034128;28;20075;-72
2021/11/14 01:41:36;;;;;;;31.93;21.67;;;;;;;5.08;100.00;96127.09;5033151;28;20044;-72
2021/11/14 01:44:03;;;;;;;30.20;20.90;;;;;;;5.06;100.00;96123.78;5020716;28;20437;-72
2021/11/14 01:46:30;;;;;;;29.40;20.80;;;;;;;5.07;100.00;96123.69;5040060;28;20141;-72
2021/11/14 01:48:56;;;;;;;29.80;20.23;;;;;;;5.04;100.00;96125.72;5039893;28;20028;-72
2021/11/14 01:51:22;;;;;;;27.43;20.03;;;;;;;5.03;100.00;96126.66;5021302;28;20064;-72
2021/11/14 01:53:49;;;;;;;31.47;20.87;;;;;;;5.01;100.00;96124.19;5036634;28;20049;-72
2021/11/14 01:56:17;;;;;;;28.87;19.90;;;;;;;5.02;100.00;96130.22;5037580;28;20487;-72
2021/11/14 01:58:45;;;;;;;30.77;20.47;;;;;;;5.06;100.00;96131.63;5028312;28;20542;-72
2021/11/14 02:01:16;;;;;;;26.53;19.00;;;;;;;5.07;100.00;96128.06;5012391;28;20541;-72
2021/11/14 02:03:47;;;;;;;28.97;20.20;;;;;;;5.06;100.00;96131.63;5019522;28;20037;-72
2021/11/14 02:06:13;;;;;;;30.23;20.40;;;;;;;5.08;100.00;96132.31;5040598;28;20056;-72
2021/11/14 02:08:41;;;;;;;32.00;21.33;;;;;;;5.09;100.00;96132.19;5034100;28;20486;-72
2021/11/14 02:11:09;;;;;;;29.97;20.83;;;;;;;5.09;100.00;96131.34;5021120;28;20048;-72
2021/11/14 02:13:35;;;;;;;28.23;20.60;;;;;;;5.12;100.00;96125.88;5025291;28;20041;-72
2021/11/14 02:16:01;;;;;;;28.73;20.53;;;;;;;5.09;100.00;96128.75;5029855;28;20014;-72
2021/11/14 02:18:27;;;;;;;29.33;19.73;;;;;;;5.08;100.00;96129.72;5044927;28;20040;-72
2021/11/14 02:20:53;;;;;;;27.40;18.93;;;;;;;5.11;100.00;96134.69;5040208;28;20056;-72
2021/11/14 02:23:22;;;;;;;29.23;20.83;;;;;;;5.09;100.00;96136.56;5020486;28;20036;-72
2021/11/14 02:25:48;;;;;;;28.70;20.63;;;;;;;5.04;100.00;96130.94;5036574;28;20037;-72
2021/11/14 02:28:16;;;;;;;31.23;22.10;;;;;;;5.04;100.00;96141.34;5032691;28;20029;-72
2021/11/14 02:30:42;;;;;;;29.83;20.93;;;;;;;5.08;100.00;96137.53;5039035;28;20105;-72
2021/11/14 02:33:08;;;;;;;29.90;20.40;;;;;;;5.02;100.00;96143.25;5036746;28;20103;-72
2021/11/14 02:35:35;;;;;;;31.70;20.57;;;;;;;5.01;100.00;96133.78;5033021;28;20036;-72
2021/11/14 02:38:02;;;;;;;30.33;21.40;;;;;;;5.04;100.00;96133.53;5022715;28;20118;-72
2021/11/14 02:40:27;;;;;;;38.40;23.70;;;;;;;5.04;100.00;96131.75;5012452;28;20057;-72
2021/11/14 02:42:53;;;;;;;34.33;22.53;;;;;;;5.07;100.00;96135.88;5019014;28;20065;-72
2021/11/14 02:45:22;;;;;;;33.30;24.43;;;;;;;5.05;100.00;96138.59;5040838;28;20029;-72
2021/11/14 02:47:50;;;;;;;34.10;21.77;;;;;;;5.08;100.00;96145.34;5027020;28;20033;-72
2021/11/14 02:50:16;;;;;;;29.63;21.40;;;;;;;5.18;100.00;96138.41;5029146;28;20042;-72
2021/11/14 02:52:42;;;;;;;30.40;21.93;;;;;;;5.18;100.00;96147.06;5005093;28;20087;-72
2021/11/14 02:55:11;;;;;;;27.83;20.03;;;;;;;5.21;100.00;96138.16;5023995;28;20454;-72
2021/11/14 02:57:37;;;;;;;30.47;21.20;;;;;;;5.19;100.00;96140.88;5024239;28;20140;-72
2021/11/14 03:00:11;;;;;;;30.83;20.20;;;;;;;5.14;100.00;96139.63;5015556;28;20494;-72
2021/11/14 03:02:36;;;;;;;31.10;20.63;;;;;;;5.06;100.00;96144.66;5037030;28;20065;-72
2021/11/14 03:05:11;;;;;;;31.60;20.67;;;;;;;5.05;100.00;96137.78;5015350;28;20065;-72
2021/11/14 03:07:37;;;;;;;31.83;20.33;;;;;;;5.02;100.00;96136.25;5003011;28;20044;-72
2021/11/14 03:10:09;;;;;;;30.13;20.97;;;;;;;5.00;100.00;96139.94;5008907;28;20029;-72
2021/11/14 03:12:35;;;;;;;28.77;19.83;;;;;;;4.95;100.00;96143.75;5020611;28;20448;-72
2021/11/14 03:15:03;;;;;;;28.13;20.70;;;;;;;4.99;100.00;96140.91;5014077;28;20064;-72
2021/11/14 03:17:30;;;;;;;28.97;19.67;;;;;;;5.00;100.00;96143.41;5027136;28;20042;-72
2021/11/14 03:19:56;;;;;;;28.77;19.90;;;;;;;5.03;100.00;96142.28;5014836;28;20096;-72
2021/11/14 03:22:21;;;;;;;28.83;19.53;;;;;;;5.01;100.00;96139.81;5035930;28;20137;-72
2021/11/14 03:24:52;;;;;;;29.83;21.27;;;;;;;4.96;100.00;96136.75;5026133;28;20102;-72
2021/11/14 03:27:23;;;;;;;28.13;19.53;;;;;;;4.96;100.00;96145.44;5040845;28;20045;-72
2021/11/14 03:29:49;;;;;;;27.57;19.73;;;;;;;4.97;100.00;96149.69;5017204;28;20032;-72
2021/11/14 03:32:14;;;;;;;26.80;19.70;;;;;;;4.96;100.00;96150.63;5021311;28;20724;-72
2021/11/14 03:34:40;;;;;;;26.87;18.20;;;;;;;4.97;100.00;96147.06;5025933;28;20572;-72
2021/11/14 03:37:14;;;;;;;25.97;18.77;;;;;;;4.99;100.00;96138.28;5037176;28;20032;-72
2021/11/14 03:39:40;;;;;;;26.93;18.13;;;;;;;4.96;100.00;96148.03;5040769;28;20033;-72
2021/11/14 03:42:06;;;;;;;24.93;18.20;;;;;;;4.95;100.00;96146.34;5028454;28;20171;-72
2021/11/14 03:44:33;;;;;;;27.27;18.50;;;;;;;4.92;100.00;96146.59;5022766;28;20056;-72
2021/11/14 03:46:59;;;;;;;28.73;19.90;;;;;;;4.93;100.00;96152.69;5035104;28;20038;-72
2021/11/14 03:49:25;;;;;;;26.27;18.47;;;;;;;4.92;100.00;96146.59;5038774;28;20029;-72
2021/11/14 03:51:50;;;;;;;27.40;18.23;;;;;;;4.93;100.00;96152.69;5008167;28;20124;-72
2021/11/14 03:54:16;;;;;;;27.33;19.50;;;;;;;4.90;100.00;96148.53;5049428;28;20401;-72
2021/11/14 03:56:43;;;;;;;26.40;18.90;;;;;;;4.88;100.00;96149.59;5017122;28;20021;-72
2021/11/14 03:59:09;;;;;;;27.90;19.27;;;;;;;4.84;100.00;96148.22;5019715;28;20025;-72
2021/11/14 04:01:34;;;;;;;24.10;17.70;;;;;;;4.81;100.00;96156.28;5037396;28;20075;-72
2021/11/14 04:04:00;;;;;;;26.07;18.47;;;;;;;4.77;100.00;96163.53;5024562;28;20025;-72
2021/11/14 04:06:26;;;;;;;28.87;19.33;;;;;;;4.77;100.00;96171.34;5039613;28;20129;-72
2021/11/14 04:08:53;;;;;;;27.13;18.60;;;;;;;4.75;100.00;96170.63;5016458;28;20105;-72
2021/11/14 04:11:19;;;;;;;28.47;19.37;;;;;;;4.71;100.00;96169.22;5029305;28;20079;-72
2021/11/14 04:13:45;;;;;;;28.93;19.63;;;;;;;4.72;100.00;96165.66;5029408;28;20025;-72
2021/11/14 04:16:11;;;;;;;30.30;20.20;;;;;;;4.76;100.00;96171.44;5025551;28;20048;-72
2021/11/14 04:18:37;;;;;;;31.03;21.43;;;;;;;4.77;100.00;96168.72;5037650;28;20091;-72
2021/11/14 04:21:04;;;;;;;29.37;19.70;;;;;;;4.78;100.00;96170.38;5009359;28;20031;-72
2021/11/14 04:23:30;;;;;;;30.70;21.03;;;;;;;4.76;100.00;96172.25;5037318;28;20033;-72
2021/11/14 04:25:56;;;;;;;31.93;20.97;;;;;;;4.75;100.00;96173.22;5018356;28;20045;-72
2021/11/14 04:28:22;;;;;;;30.47;20.47;;;;;;;4.72;100.00;96174.28;5025264;28;20116;-74
2021/11/14 04:30:49;;;;;;;33.97;23.13;;;;;;;4.70;100.00;96176.22;5011754;28;20041;-72
2021/11/14 04:33:16;;;;;;;32.50;22.27;;;;;;;4.69;100.00;96181.53;5036709;28;20052;-72
2021/11/14 04:35:43;;;;;;;33.50;22.73;;;;;;;4.69;100.00;96177.19;5042206;28;20040;-72
2021/11/14 04:38:10;;;;;;;35.00;22.83;;;;;;;4.70;100.00;96178.00;5031110;28;20113;-72
2021/11/14 04:40:37;;;;;;;35.83;23.20;;;;;;;4.72;100.00;96187.31;5040657;28;20037;-72
2021/11/14 04:43:04;;;;;;;35.70;22.23;;;;;;;4.71;100.00;96180.47;5020426;28;20029;-72
2021/11/14 04:45:30;;;;;;;34.63;23.07;;;;;;;4.73;100.00;96193.38;5038507;28;20059;-72
2021/11/14 04:47:56;;;;;;;35.93;24.47;;;;;;;4.73;100.00;96193.38;5037440;28;20029;-72
2021/11/14 04:50:23;;;;;;;34.13;22.97;;;;;;;4.78;100.00;96193.81;5043334;28;20033;-72
2021/11/14 04:52:50;;;;;;;32.43;21.67;;;;;;;4.71;100.00;96192.66;5044779;28;20025;-72
2021/11/14 04:55:16;;;;;;;35.53;23.00;;;;;;;4.72;100.00;96191.69;5043548;28;20078;-72
2021/11/14 04:57:42;;;;;;;33.77;23.47;;;;;;;4.73;100.00;96193.38;5038650;28;20449;-72
2021/11/14 05:00:12;;;;;;;31.93;22.13;;;;;;;4.73;100.00;96185.56;5015111;28;20033;-72
2021/11/14 05:02:38;;;;;;;31.23;22.43;;;;;;;4.75;100.00;96191.47;5035503;28;20163;-72
2021/11/14 05:05:06;;;;;;;33.97;22.70;;;;;;;4.72;100.00;96187.31;5025385;28;20029;-72
2021/11/14 05:07:32;;;;;;;32.97;21.57;;;;;;;4.75;100.00;96188.84;5043803;28;20037;-72
2021/11/14 05:09:58;;;;;;;32.37;21.43;;;;;;;4.75;100.00;96198.44;5040137;28;20056;-72
2021/11/14 05:12:23;;;;;;;32.03;21.40;;;;;;;4.72;100.00;96192.53;5042633;28;20059;-72
2021/11/14 05:14:49;;;;;;;34.10;21.70;;;;;;;4.75;100.00;96198.44;5041127;28;20043;-72
2021/11/14 05:17:16;;;;;;;36.23;24.00;;;;;;;4.73;100.00;96196.00;5033806;28;20107;-72
2021/11/14 05:19:41;;;;;;;32.07;21.63;;;;;;;4.73;100.00;96196.81;5029125;28;20033;-72
2021/11/14 05:22:07;;;;;;;35.03;22.77;;;;;;;4.75;100.00;96201.88;5020434;28;20574;-72
2021/11/14 05:24:33;;;;;;;32.33;22.23;;;;;;;4.78;100.00;96203.41;5046645;28;20124;-71
2021/11/14 05:26:59;;;;;;;29.53;21.97;;;;;;;4.77;100.00;96205.19;5019308;28;20025;-72
2021/11/14 05:29:25;;;;;;;32.60;22.67;;;;;;;4.78;100.00;96212.06;5029638;28;20026;-72
2021/11/14 05:31:51;;;;;;;36.50;24.43;;;;;;;4.77;100.00;96209.59;5038106;28;20032;-72
2021/11/14 05:34:17;;;;;;;33.80;22.53;;;;;;;4.77;100.00;96209.59;5004390;28;20033;-71
2021/11/14 05:36:42;;;;;;;33.60;22.80;;;;;;;4.80;100.00;96220.59;5033734;28;20441;-72
2021/11/14 05:39:08;;;;;;;35.77;23.77;;;;;;;4.79;100.00;96218.09;5020873;28;20021;-72
2021/11/14 05:41:34;;;;;;;37.23;24.17;;;;;;;4.80;100.00;96220.59;5039288;28;20040;-72
2021/11/14 05:43:59;;;;;;;37.13;24.03;;;;;;;4.80;100.00;96225.81;5037014;28;20021;-72
2021/11/14 05:46:25;;;;;;;34.43;23.37;;;;;;;4.79;100.00;96226.72;5036332;28;20079;-72
2021/11/14 05:48:51;;;;;;;35.87;23.80;;;;;;;4.80;100.00;96232.78;5018860;28;20035;-72
2021/11/14 05:51:16;;;;;;;35.47;23.70;;;;;;;4.78;100.00;96243.31;5030257;28;20034;-72
2021/11/14 05:53:42;;;;;;;37.83;25.57;;;;;;;4.78;100.00;96242.50;5041992;28;20033;-72
2021/11/14 05:56:08;;;;;;;37.83;25.87;;;;;;;4.80;100.00;96235.41;5025778;28;20029;-72
2021/11/14 06:04:05;;;;;;;41.17;26.30;;;;;;;4.86;100.00;96242.69;5016162;28;20450;-72
2021/11/14 06:06:31;;;;;;;43.47;26.53;;;;;;;4.84;100.00;96242.84;5031917;28;20395;-72
2021/11/14 06:08:57;;;;;;;42.43;27.43;;;;;;;4.82;100.00;96247.31;5021890;28;20032;-72
2021/11/14 06:11:24;;;;;;;45.90;26.83;;;;;;;4.86;100.00;96247.91;5043218;28;20044;-72
2021/11/14 06:13:52;;;;;;;40.23;27.20;;;;;;;4.91;100.00;96254.41;5016172;28;20025;-72
2021/11/14 06:16:18;;;;;;;41.57;27.57;;;;;;;4.89;100.00;96258.09;5031884;28;20092;-73
2021/11/14 06:18:44;;;;;;;41.80;26.27;;;;;;;4.88;100.00;96265.06;5016312;28;20021;-72
2021/11/14 06:21:09;;;;;;;40.83;27.30;;;;;;;4.87;100.00;96262.59;5028928;28;20030;-72
2021/11/14 06:23:35;;;;;;;41.47;26.67;;;;;;;4.90;100.00;96257.16;5022594;28;20044;-72
2021/11/14 06:26:01;;;;;;;45.90;27.07;;;;;;;4.85;100.00;96269.72;5014977;28;20047;-72
2021/11/14 06:28:27;;;;;;;41.63;26.97;;;;;;;4.83;100.00;96264.63;5009279;28;20622;-72
2021/11/14 06:30:53;;;;;;;38.53;25.33;;;;;;;4.85;100.00;96270.53;5028256;28;20434;-72
2021/11/14 06:33:19;;;;;;;41.57;26.00;;;;;;;4.87;100.00;96273.84;5035044;28;20061;-72
2021/11/14 06:35:45;;;;;;;42.93;25.53;;;;;;;4.91;100.00;96274.44;5036608;28;20074;-74
2021/11/14 06:38:11;;;;;;;41.07;24.83;;;;;;;4.90;100.00;96272.78;5036562;28;20177;-73
2021/11/14 06:40:36;;;;;;;40.93;25.77;;;;;;;4.93;100.00;96281.19;5033726;28;20056;-73
2021/11/14 06:43:02;;;;;;;39.77;26.27;;;;;;;4.92;100.00;96289.09;5034660;28;20029;-73
2021/11/14 06:45:28;;;;;;;40.53;24.97;;;;;;;4.91;100.00;96284.84;4999175;28;20068;-73
2021/11/14 06:47:55;;;;;;;39.17;26.23;;;;;;;4.93;100.00;96289.00;5017915;28;20029;-73
2021/11/14 06:50:21;;;;;;;39.73;26.13;;;;;;;4.93;100.00;96294.22;5009255;28;20068;-73
2021/11/14 06:52:47;;;;;;;42.97;26.83;;;;;;;4.94;100.00;96295.88;5032655;28;20517;-74
2021/11/14 06:55:15;;;;;;;42.70;27.97;;;;;;;4.96;100.00;96296.59;5040411;28;20689;-73
2021/11/14 06:57:41;;;;;;;43.97;27.37;;;;;;;4.99;100.00;96302.47;5022040;28;20045;-74
2021/11/14 07:00:11;;;;;;;48.13;29.77;;;;;;;4.96;100.00;96301.78;5034747;28;20428;-74
2021/11/14 07:02:37;;;;;;;48.37;29.67;;;;;;;5.02;100.00;96310.06;4999282;28;20037;-74
2021/11/14 07:05:04;;;;;;;53.87;31.07;;;;;;;5.00;100.00;96310.19;5015927;28;20033;-73
2021/11/14 07:07:30;;;;;;;52.70;30.43;;;;;;;5.06;100.00;96316.66;4997915;28;20502;-73
2021/11/14 07:09:55;;;;;;;57.33;33.33;;;;;;;5.06;100.00;96309.66;5036824;28;20049;-73
2021/11/14 07:12:23;;;;;;;53.87;31.50;;;;;;;5.10;100.00;96320.72;5041031;28;20037;-74
2021/11/14 07:14:50;;;;;;;54.20;31.50;;;;;;;5.12;100.00;96318.78;5020039;28;20037;-74
2021/11/14 07:17:16;;;;;;;55.13;32.17;;;;;;;5.12;100.00;96322.22;5041123;28;20036;-73
2021/11/14 07:19:42;;;;;;;58.40;31.43;;;;;;;5.16;100.00;96326.25;5043386;28;20029;-73
2021/11/14 07:22:08;;;;;;;56.33;31.20;;;;;;;5.16;100.00;96336.69;5041360;28;20037;-73
2021/11/14 07:24:34;;;;;;;59.60;33.80;;;;;;;5.22;100.00;96335.34;5036747;28;20458;-73
2021/11/14 07:26:59;;;;;;;58.47;31.63;;;;;;;5.23;100.00;96338.78;5037475;28;20511;-73
2021/11/14 07:29:25;;;;;;;59.47;32.23;;;;;;;5.23;100.00;96336.16;5012201;28;20040;-74
2021/11/14 07:31:51;;;;;;;60.13;31.73;;;;;;;5.23;100.00;96336.16;5032287;28;20032;-73
2021/11/14 07:34:17;;;;;;;58.67;32.03;;;;;;;5.17;100.00;96342.72;5018875;28;20037;-73
2021/11/14 07:36:43;;;;;;;59.60;32.40;;;;;;;5.22;100.00;96344.94;5019347;28;20104;-73
2021/11/14 07:39:09;;;;;;;60.33;32.77;;;;;;;5.23;100.00;96337.03;5024708;28;20022;-73
2021/11/14 07:41:35;;;;;;;66.23;35.77;;;;;;;5.29;100.00;96341.72;5014638;28;20041;-73
2021/11/14 07:44:01;;;;;;;60.67;33.50;;;;;;;5.26;100.00;96344.56;5007919;28;20037;-73
2021/11/14 07:46:26;;;;;;;65.10;34.60;;;;;;;5.30;100.00;96348.59;5010457;28;20048;-73
2021/11/14 07:48:53;;;;;;;71.67;36.73;;;;;;;5.30;100.00;96355.56;5036878;28;20151;-73
2021/11/14 07:51:19;;;;;;;66.40;35.30;;;;;;;5.37;100.00;96347.16;5036262;28;20041;-72
2021/11/14 07:53:45;;;;;;;72.80;34.90;;;;;;;5.45;100.00;96354.34;5042075;28;20068;-72
2021/11/14 07:56:11;;;;;;;72.13;35.20;;;;;;;5.51;100.00;96350.41;5036622;28;20071;-71
2021/11/14 07:58:37;;;;;;;74.80;35.43;;;;;;;5.59;100.00;96340.19;5017483;28;20037;-73
2021/11/14 08:01:03;;;;;;;73.60;36.17;;;;;;;5.61;100.00;96346.09;5020713;28;20685;-72
2021/11/14 08:03:32;;;;;;;75.97;35.13;;;;;;;5.70;100.00;96342.75;5043942;28;20044;-73
2021/11/14 08:06:02;;;;;;;74.40;35.83;;;;;;;5.68;100.00;96342.03;5021647;28;20113;-72
2021/11/14 08:08:28;;;;;;;68.43;35.17;;;;;;;5.77;100.00;96338.69;5025469;28;20047;-72
2021/11/14 08:10:54;;;;;;;67.90;35.63;;;;;;;5.78;100.00;96342.94;5043391;28;20376;-72
2021/11/14 08:13:21;;;;;;;70.23;34.23;;;;;;;5.82;100.00;96344.31;5046149;28;20033;-72
2021/11/14 08:15:47;;;;;;;69.27;35.83;;;;;;;5.85;100.00;96349.28;5020904;28;20569;-72
2021/11/14 08:18:14;;;;;;;71.73;34.73;;;;;;;5.85;100.00;96349.28;5046452;28;20170;-72
2021/11/14 08:20:39;;;;;;;70.43;34.23;;;;;;;5.90;100.00;96357.59;5041116;28;20040;-72
2021/11/14 08:23:07;;;;;;;74.67;38.27;;;;;;;5.96;100.00;96364.09;5020507;28;20037;-71
2021/11/14 08:25:34;;;;;;;73.23;35.37;;;;;;;5.95;100.00;96370.28;5018709;28;20043;-72
2021/11/14 08:28:00;;;;;;;71.67;36.47;;;;;;;5.90;100.00;96365.41;5013620;28;20056;-72
2021/11/14 08:30:26;;;;;;;68.67;34.20;;;;;;;5.88;100.00;96364.69;5023210;28;20033;-74
2021/11/14 08:32:52;;;;;;;77.77;35.77;;;;;;;5.88;100.00;96374.31;5033179;28;20044;-72
2021/11/14 08:35:20;;;;;;;82.80;38.27;;;;;;;5.90;100.00;96368.03;5036743;28;20037;-72
2021/11/14 08:37:47;;;;;;;84.33;37.40;;;;;;;5.86;100.00;96381.44;5045462;28;20041;-72
2021/11/14 08:40:15;;;;;;;79.37;36.33;;;;;;;5.85;100.00;96379.78;5046215;28;20487;-73
2021/11/14 08:42:41;;;;;;;83.07;36.93;;;;;;;5.94;100.00;96379.06;5041231;28;20041;-72
2021/11/14 08:45:09;;;;;;;83.67;34.93;;;;;;;6.05;100.00;96376.38;5003487;28;20033;-73
2021/11/14 08:47:35;;;;;;;74.57;35.10;;;;;;;6.14;100.00;96374.81;5020006;28;20045;-72
2021/11/14 08:50:01;;;;;;;69.73;34.27;;;;;;;6.28;100.00;96374.47;5040989;28;20044;-72
2021/11/14 08:52:28;;;;;;;66.40;33.30;;;;;;;6.20;100.00;96371.66;5041333;28;20034;-73
2021/11/14 08:54:54;;;;;;;70.90;33.27;;;;;;;6.27;100.00;96370.22;5002090;28;20040;-73
2021/11/14 08:57:19;;;;;;;69.40;32.77;;;;;;;6.22;100.00;96372.38;5007470;28;20422;-74
2021/11/14 08:59:47;;;;;;;76.87;34.97;;;;;;;6.27;100.00;96375.44;5033659;28;20040;-73
2021/11/14 09:02:13;;;;;;;63.73;31.57;;;;;;;6.33;100.00;96379.28;5026959;28;20029;-72
2021/11/14 09:04:40;;;;;;;66.33;31.73;;;;;;;6.36;100.00;96382.47;5035016;28;20032;-73
2021/11/14 09:07:06;;;;;;;68.23;32.50;;;;;;;6.29;100.00;96383.94;5038926;28;20060;-73
2021/11/14 09:09:32;;;;;;;65.03;32.53;;;;;;;6.37;100.00;96386.75;5018270;28;20052;-73
2021/11/14 09:11:58;;;;;;;61.97;31.67;;;;;;;6.37;100.00;96391.97;5026280;28;20038;-74
2021/11/14 09:14:24;;;;;;;68.30;32.53;;;;;;;6.47;100.00;96391.19;5015788;28;20028;-73
2021/11/14 09:16:51;;;;;;;57.90;29.03;;;;;;;6.50;100.00;96399.59;5036318;28;20033;-73
2021/11/14 09:19:17;;;;;;;54.60;28.87;;;;;;;6.46;100.00;96392.16;5025024;28;20033;-73
2021/11/14 09:21:44;;;;;;;53.43;26.40;;;;;;;6.48;100.00;96395.47;5039098;28;20041;-73
2021/11/14 09:24:10;;;;;;;60.73;30.13;;;;;;;6.57;100.00;96402.50;5035524;28;20047;-73
2021/11/14 09:26:37;;;;;;;51.40;26.17;;;;;;;6.63;100.00;96396.75;5036542;28;20120;-73
2021/11/14 09:29:04;;;;;;;52.90;26.47;;;;;;;6.72;100.00;96401.22;5042351;28;20040;-73
2021/11/14 09:31:31;;;;;;;52.43;27.10;;;;;;;6.59;100.00;96401.44;5032923;28;20040;-73
2021/11/14 09:33:59;;;;;;;51.03;26.87;;;;;;;6.74;100.00;96399.31;5031858;28;20026;-73
2021/11/14 09:36:31;;;;;;;53.20;28.73;;;;;;;6.78;100.00;96395.47;5033847;28;20399;-73
2021/11/14 09:38:58;;;;;;;57.17;29.67;;;;;;;7.02;100.00;96399.53;5022050;28;20274;-73
2021/11/14 09:41:24;;;;;;;51.13;27.37;;;;;;;6.92;100.00;96416.97;5030171;28;20028;-74
2021/11/14 09:43:52;;;;;;;49.90;26.60;;;;;;;6.83;100.00;96398.50;5017826;28;20065;-74
2021/11/14 09:46:19;;;;;;;48.37;28.30;;;;;;;6.59;100.00;96404.03;5035918;28;20041;-73
2021/11/14 09:48:46;;;;;;;56.40;29.90;;;;;;;6.65;100.00;96402.69;5010229;28;20935;-74
2021/11/14 09:51:12;;;;;;;51.40;28.40;;;;;;;6.72;100.00;96406.44;5030579;28;20025;-73
2021/11/14 09:53:38;;;;;;;54.10;31.27;;;;;;;6.77;100.00;96406.03;5037148;28;20689;-73
2021/11/14 09:56:06;;;;;;;57.17;31.07;;;;;;;6.79;100.00;96412.78;5003931;28;20052;-73
2021/11/14 09:58:32;;;;;;;54.13;30.50;;;;;;;6.81;100.00;96410.06;5031807;28;20521;-73
2021/11/14 10:00:59;;;;;;;55.07;30.03;;;;;;;6.88;100.00;96405.13;5036315;28;20598;-73
2021/11/14 10:03:25;;;;;;;56.90;30.83;;;;;;;6.75;100.00;96400.94;5035300;28;20083;-73
2021/11/14 10:05:51;;;;;;;54.77;30.23;;;;;;;6.81;100.00;96403.03;5022825;28;20041;-73
2021/11/14 10:08:19;;;;;;;61.70;33.97;;;;;;;6.74;100.00;96404.53;5022264;28;20064;-73
2021/11/14 10:10:56;;;;;;;57.07;29.70;;;;;;;6.91;100.00;96397.84;5039337;28;20027;-74
2021/11/14 10:13:27;;;;;;;58.60;30.40;;;;;;;6.94;100.00;96404.59;5012118;28;20033;-73
2021/11/14 10:16:06;;;;;;;57.40;30.97;;;;;;;6.99;100.00;96411.09;5044332;28;20028;-74
2021/11/14 10:18:32;;;;;;;52.33;28.80;;;;;;;7.01;100.00;96410.97;5036521;28;20029;-73
2021/11/14 10:21:02;;;;;;;48.23;28.47;;;;;;;7.02;100.00;96412.63;5019903;28;20506;-73
2021/11/14 10:23:30;;;;;;;52.47;27.60;;;;;;;7.00;100.00;96414.53;5032894;28;20038;-73
2021/11/14 10:25:57;;;;;;;59.30;30.23;;;;;;;7.04;100.00;96408.91;5024761;28;20285;-73
2021/11/14 10:28:27;;;;;;;50.90;27.80;;;;;;;7.06;100.00;96412.19;5002208;28;20121;-73
2021/11/14 10:30:54;;;;;;;50.00;27.90;;;;;;;7.07;100.00;96413.03;5012082;28;20033;-73
2021/11/14 10:33:21;;;;;;;49.00;27.83;;;;;;;7.31;100.00;96410.91;5043988;28;20525;-74
2021/11/14 10:35:50;;;;;;;53.07;28.30;;;;;;;7.38;100.00;96412.94;5019489;28;20034;-74
2021/11/14 10:38:19;;;;;;;48.47;27.93;;;;;;;7.35;100.00;96418.47;5022382;28;20030;-76
2021/11/14 10:41:08;;;;;;;50.67;26.90;;;;;;;7.23;100.00;96410.72;5024346;28;20041;-74
2021/11/14 10:43:38;;;;;;;50.40;27.97;;;;;;;7.25;100.00;96421.91;5039628;28;20574;-75
2021/11/14 10:46:06;;;;;;;46.43;25.43;;;;;;;7.24;100.00;96428.09;5029620;28;20033;-74
2021/11/14 10:48:33;;;;;;;49.80;28.07;;;;;;;7.06;100.00;96419.22;5031972;28;20727;-73
2021/11/14 10:51:01;;;;;;;50.07;26.77;;;;;;;7.21;100.00;96423.13;5001668;28;20039;-73
2021/11/14 10:53:30;;;;;;;39.63;23.80;;;;;;;7.13;100.00;96414.28;5036494;28;20036;-75
2021/11/14 10:56:06;;;;;;;44.00;25.17;;;;;;;7.09;100.00;96408.50;5035192;28;20081;-75
2021/11/14 10:58:33;;;;;;;46.97;26.77;;;;;;;7.12;100.00;96404.78;5012886;28;20057;-75
2021/11/14 11:01:03;;;;;;;46.73;27.47;;;;;;;7.19;100.00;96403.31;5016711;28;20020;-75
2021/11/14 11:03:41;;;;;;;42.07;25.87;;;;;;;7.17;100.00;96400.81;5039311;28;20029;-75
2021/11/14 11:06:08;;;;;;;44.17;26.10;;;;;;;7.20;100.00;96405.75;5016712;28;20124;-76
2021/11/14 11:08:36;;;;;;;40.37;24.60;;;;;;;7.26;100.00;96405.22;5017094;28;20097;-75
2021/11/14 11:11:07;;;;;;;42.20;26.07;;;;;;;7.27;100.00;96401.66;5025119;28;20048;-76
2021/11/14 11:13:35;;;;;;;37.57;22.73;;;;;;;7.31;100.00;96397.00;5031166;28;20032;-75
2021/11/14 11:16:04;;;;;;;39.23;23.30;;;;;;;7.34;100.00;96401.94;5039795;28;20021;-75
2021/11/14 11:18:30;;;;;;;39.47;24.73;;;;;;;7.36;100.00;96402.63;5032646;28;20030;-76
2021/11/14 11:21:02;;;;;;;40.60;25.00;;;;;;;7.41;100.00;96407.47;5038624;28;20051;-76